Big Glory — H9IF — position and weather

sailwx.info

Track history (hours):
 
Tides and Currents Weather Stations Pressure Air Temp Water Temp Dewpoint Dewpoint Depression Visibility Wind Speed Wind Dir Waves Ship Positions

Big Glory

Last reported at 2014-Sep-06 07:31 UTC. Time now 2014-Sep-19 11:51 UTC.
Position N 37°23' E 123°20'.
Warning: this ship's position is 13 days out of date.

Length 190 m; draft 6.4 m.

Type: Cargo ship. MMSI: 354285000.

Date/timePositionNaut miles runAvg speedWind from/ knotsBaromVisibWave heightAir tempDewpointWater temp
2014-Sep-06 07:31N 37°23' E 123°20'1512.3
2014-Sep-06 06:16N 37°38' E 123°13'911.3
2014-Sep-06 05:28N 37°45' E 123°07'1413.2
2014-Sep-06 04:22N 37°47' E 122°49'1113.3
2014-Sep-06 03:33N 37°48' E 122°35'1313.2
2014-Sep-06 02:33N 37°49' E 122°18'1313.2
2014-Sep-06 01:33N 37°50' E 122°02'1313.0
2014-Sep-06 00:31N 37°53' E 121°45'1213.0
2014-Sep-05 23:33N 37°55' E 121°30'1312.9
2014-Sep-05 22:33N 37°56' E 121°13'  
2014-Aug-31 22:33N 37°55' E 121°22'1211.3
2014-Aug-31 21:31N 37°51' E 121°35'2211.2
2014-Aug-31 19:31N 37°47' E 122°03'1010.4
2014-Aug-31 18:32N 37°43' E 122°15'1010.6
2014-Aug-31 17:33N 37°40' E 122°28'1210.9
2014-Aug-31 16:27N 37°35' E 122°42'2611.5
2014-Aug-31 14:14N 37°14' E 122°59'2412.1
2014-Aug-31 12:13N 36°52' E 123°12'  
Track history (hours):
 
Tides and Currents Weather Stations Pressure Air Temp Water Temp Dewpoint Dewpoint Depression Visibility Wind Speed Wind Dir Waves Ship Positions

Big Glory

Last reported at 2014-Sep-06 07:31 UTC. Time now 2014-Sep-19 11:51 UTC.
Position N 37°23' E 123°20'.
Warning: this ship's position is 13 days out of date.

Length 190 m; draft 6.4 m.

Type: Cargo ship. MMSI: 354285000.

Date/timePositionNaut miles runAvg speedWind from/ knotsBaromVisibWave heightAir tempDewpointWater temp
2014-Sep-06 07:31N 37°23' E 123°20'1512.3
2014-Sep-06 06:16N 37°38' E 123°13'911.3
2014-Sep-06 05:28N 37°45' E 123°07'1413.2
2014-Sep-06 04:22N 37°47' E 122°49'1113.3
2014-Sep-06 03:33N 37°48' E 122°35'1313.2
2014-Sep-06 02:33N 37°49' E 122°18'1313.2
2014-Sep-06 01:33N 37°50' E 122°02'1313.0
2014-Sep-06 00:31N 37°53' E 121°45'1213.0
2014-Sep-05 23:33N 37°55' E 121°30'1312.9
2014-Sep-05 22:33N 37°56' E 121°13'  
2014-Aug-31 22:33N 37°55' E 121°22'1211.3
2014-Aug-31 21:31N 37°51' E 121°35'2211.2
2014-Aug-31 19:31N 37°47' E 122°03'1010.4
2014-Aug-31 18:32N 37°43' E 122°15'1010.6
2014-Aug-31 17:33N 37°40' E 122°28'1210.9
2014-Aug-31 16:27N 37°35' E 122°42'2611.5
2014-Aug-31 14:14N 37°14' E 122°59'2412.1
2014-Aug-31 12:13N 36°52' E 123°12'  

Dump ship's entire track history